Time;durP1;ratioP1;P1;durP2;ratioP2;P2;SDS_P1;SDS_P2;PMS_P1;PMS_P2;Temp;Humidity;BMP_temperature;BMP_pressure;BME280_temperature;BME280_humidity;BME280_pressure;Samples;Min_cycle;Max_cycle;Signal;HPM_P1;HPM_P2
2023/12/08 00:02:12;;;;;;;8.87;5.70;;;4.00;1.00;;;;;;4991556;28;20215;-73
2023/12/08 00:04:38;;;;;;;15.30;6.70;;;3.60;1.00;;;;;;4991402;28;20202;-73
2023/12/08 00:07:04;;;;;;;10.60;5.83;;;3.60;1.00;;;;;;4991519;28;20246;-74
2023/12/08 00:09:31;;;;;;;13.33;6.53;;;3.60;1.00;;;;;;4990978;28;20213;-73
2023/12/08 00:11:57;;;;;;;9.90;5.70;;;3.60;1.00;;;;;;4987014;28;20637;-74
2023/12/08 00:14:23;;;;;;;11.93;6.40;;;3.60;1.00;;;;;;4989311;28;20419;-72
2023/12/08 00:16:48;;;;;;;11.77;6.50;;;3.60;1.00;;;;;;4991020;28;20425;-74
2023/12/08 00:19:14;;;;;;;12.33;6.17;;;3.70;1.00;;;;;;4990358;28;20675;-73
2023/12/08 00:21:39;;;;;;;11.50;6.37;;;3.70;1.00;;;;;;4990203;28;20606;-73
2023/12/08 00:24:05;;;;;;;13.30;7.17;;;3.70;1.00;;;;;;4988260;28;20635;-73
2023/12/08 00:26:30;;;;;;;10.50;5.50;;;3.80;1.00;;;;;;4983051;28;20183;-73
2023/12/08 00:28:56;;;;;;;10.63;5.80;;;6.10;1.00;;;;;;4987075;28;20215;-76
2023/12/08 00:31:21;;;;;;;9.57;5.80;;;3.80;1.00;;;;;;4986631;28;20179;-73
2023/12/08 00:33:47;;;;;;;13.03;6.63;;;3.80;1.00;;;;;;4990680;28;20650;-73
2023/12/08 00:36:13;;;;;;;14.83;7.20;;;3.80;1.00;;;;;;4990576;28;20187;-74
2023/12/08 00:38:39;;;;;;;13.70;7.07;;;3.70;1.00;;;;;;4983052;28;20258;-72
2023/12/08 00:41:05;;;;;;;13.13;7.53;;;3.80;1.00;;;;;;4990697;28;20937;-74
2023/12/08 00:43:30;;;;;;;14.83;7.07;;;3.80;1.00;;;;;;4988867;28;20183;-71
2023/12/08 00:45:57;;;;;;;13.33;7.27;;;4.20;1.00;;;;;;4990654;28;20269;-74
2023/12/08 00:48:22;;;;;;;13.80;6.33;;;3.90;1.00;;;;;;4989979;28;20210;-73
2023/12/08 00:50:48;;;;;;;14.30;7.33;;;3.80;1.00;;;;;;4989853;28;20430;-74
2023/12/08 00:53:13;;;;;;;12.80;6.80;;;3.80;1.00;;;;;;4987399;28;20277;-77
2023/12/08 00:55:38;;;;;;;14.00;7.80;;;3.70;1.00;;;;;;4980591;28;20192;-72
2023/12/08 00:58:04;;;;;;;18.83;8.33;;;3.70;1.00;;;;;;4987084;28;20203;-73
2023/12/08 01:00:30;;;;;;;11.83;6.80;;;3.70;1.00;;;;;;4990256;28;20788;-74
2023/12/08 01:02:56;;;;;;;14.50;7.30;;;3.70;1.00;;;;;;4982414;28;20630;-72
2023/12/08 01:05:21;;;;;;;18.20;8.30;;;3.70;1.00;;;;;;4989293;28;20429;-72
2023/12/08 01:07:47;;;;;;;14.60;7.13;;;4.10;1.00;;;;;;4988518;28;20230;-73
2023/12/08 01:10:12;;;;;;;14.47;7.03;;;4.00;1.00;;;;;;4983067;28;20187;-74
2023/12/08 01:12:38;;;;;;;13.50;6.40;;;3.80;1.00;;;;;;4987176;28;20198;-72
2023/12/08 01:15:05;;;;;;;9.40;5.50;;;3.80;1.00;;;;;;4984420;28;20187;-73
2023/12/08 01:17:31;;;;;;;12.80;6.73;;;3.80;1.00;;;;;;4990394;28;20696;-74
2023/12/08 01:19:56;;;;;;;10.07;6.10;;;4.60;1.00;;;;;;4988520;28;20430;-74
2023/12/08 01:22:27;;;;;;;11.47;6.00;;;3.80;1.00;;;;;;4987867;28;20198;-72
2023/12/08 01:24:53;;;;;;;14.10;6.63;;;4.00;1.00;;;;;;4983613;28;21630;-73
2023/12/08 01:27:18;;;;;;;10.60;6.30;;;3.90;1.00;;;;;;4989785;28;20450;-73
2023/12/08 01:29:44;;;;;;;11.27;5.97;;;4.00;1.00;;;;;;4989488;28;20237;-73
2023/12/08 01:32:09;;;;;;;12.43;5.83;;;4.00;1.00;;;;;;4989230;28;20325;-74
2023/12/08 01:34:35;;;;;;;12.47;6.07;;;4.50;1.00;;;;;;4989289;28;20187;-73
2023/12/08 01:37:00;;;;;;;9.17;5.43;;;4.10;1.00;;;;;;4984995;28;20290;-74
2023/12/08 01:39:26;;;;;;;9.00;5.50;;;4.10;1.00;;;;;;5010177;23;20226;-72
2023/12/08 01:41:51;;;;;;;12.63;6.00;;;4.10;1.00;;;;;;4981653;28;20302;-74
2023/12/08 01:44:17;;;;;;;11.33;5.93;;;4.20;1.00;;;;;;4989231;28;20593;-74
2023/12/08 01:46:44;;;;;;;12.20;6.30;;;4.20;1.00;;;;;;4987128;28;20179;-73
2023/12/08 01:49:09;;;;;;;10.77;6.13;;;4.20;1.00;;;;;;4978306;28;20467;-74
2023/12/08 01:51:35;;;;;;;11.10;5.60;;;4.20;1.00;;;;;;4981197;28;20431;-73
2023/12/08 01:54:01;;;;;;;9.70;5.37;;;4.30;1.00;;;;;;4993423;28;20179;-73
2023/12/08 01:56:27;;;;;;;8.90;5.20;;;4.30;1.00;;;;;;4986564;28;20214;-75
2023/12/08 01:58:53;;;;;;;14.47;5.80;;;4.30;1.00;;;;;;4979313;28;20214;-74
2023/12/08 02:01:19;;;;;;;11.10;5.57;;;4.30;1.00;;;;;;4982863;28;20629;-73
2023/12/08 02:03:48;;;;;;;9.60;6.20;;;4.30;1.00;;;;;;4985349;28;20459;-74
2023/12/08 02:06:14;;;;;;;9.07;5.50;;;4.40;1.00;;;;;;4988817;28;20242;-74
2023/12/08 02:08:40;;;;;;;9.70;5.23;;;4.40;1.00;;;;;;4982036;28;20508;-74
2023/12/08 02:11:06;;;;;;;8.77;5.33;;;4.40;1.00;;;;;;4980843;28;20427;-74
2023/12/08 02:13:32;;;;;;;12.77;6.40;;;4.30;1.00;;;;;;4984143;28;20430;-74
2023/12/08 02:16:06;;;;;;;11.80;5.77;;;4.30;1.00;;;;;;4987998;28;20198;-72
2023/12/08 02:18:33;;;;;;;10.80;5.60;;;4.40;1.00;;;;;;4989543;28;20814;-74
2023/12/08 02:21:01;;;;;;;11.70;6.03;;;4.40;1.00;;;;;;4984802;28;20466;-75
2023/12/08 02:23:26;;;;;;;11.37;5.87;;;4.40;1.00;;;;;;4987483;28;20432;-74
2023/12/08 02:25:52;;;;;;;10.37;5.60;;;4.40;1.00;;;;;;4988480;28;20438;-72
2023/12/08 02:28:18;;;;;;;10.17;5.50;;;4.50;1.00;;;;;;4987969;28;20578;-74
2023/12/08 02:30:44;;;;;;;9.63;5.27;;;4.50;1.00;;;;;;4983790;28;20184;-74
2023/12/08 02:33:20;;;;;;;10.47;5.90;;;4.40;1.00;;;;;;4988841;28;20759;-74
2023/12/08 02:35:46;;;;;;;9.27;5.87;;;4.40;1.00;;;;;;4987514;28;20653;-74
2023/12/08 02:38:17;;;;;;;11.30;5.83;;;4.40;1.00;;;;;;4986448;28;20545;-74
2023/12/08 02:40:42;;;;;;;11.80;5.90;;;4.40;1.00;;;;;;4987454;28;20466;-72
2023/12/08 02:43:08;;;;;;;10.70;5.50;;;4.40;1.00;;;;;;4981789;28;20460;-74
2023/12/08 02:45:34;;;;;;;9.73;5.83;;;4.40;1.00;;;;;;4988990;28;20394;-74
2023/12/08 02:47:59;;;;;;;10.83;4.87;;;4.40;1.00;;;;;;4992153;28;20447;-71
2023/12/08 02:50:25;;;;;;;9.10;5.70;;;4.40;1.00;;;;;;4989148;28;20550;-74
2023/12/08 02:52:50;;;;;;;12.87;6.30;;;4.40;1.00;;;;;;4992141;28;20176;-74
2023/12/08 02:55:16;;;;;;;12.07;6.17;;;4.30;1.00;;;;;;4985782;28;20685;-74
2023/12/08 02:57:41;;;;;;;12.17;5.80;;;4.30;1.00;;;;;;4987925;28;20598;-73
2023/12/08 03:00:07;;;;;;;9.20;5.77;;;4.30;1.00;;;;;;4987242;28;20549;-75
2023/12/08 03:02:33;;;;;;;9.20;5.43;;;4.30;1.00;;;;;;4992021;28;20195;-74
2023/12/08 03:04:58;;;;;;;8.37;5.03;;;4.30;1.00;;;;;;4989620;28;20446;-74
2023/12/08 03:07:24;;;;;;;9.70;5.47;;;4.30;1.00;;;;;;4989094;28;20585;-74
2023/12/08 03:09:49;;;;;;;11.00;5.83;;;4.30;1.00;;;;;;4985714;28;20234;-73
2023/12/08 03:12:15;;;;;;;13.20;6.80;;;4.30;1.00;;;;;;4991919;28;20183;-74
2023/12/08 03:14:40;;;;;;;7.40;5.47;;;4.30;1.00;;;;;;4984446;28;20686;-74
2023/12/08 03:17:06;;;;;;;12.40;6.00;;;4.30;1.00;;;;;;4991591;28;20191;-74
2023/12/08 03:19:32;;;;;;;11.17;6.17;;;4.30;1.00;;;;;;4992070;28;20215;-74
2023/12/08 03:21:57;;;;;;;12.17;6.37;;;4.30;1.00;;;;;;4982150;28;20431;-74
2023/12/08 03:24:23;;;;;;;11.97;6.37;;;4.30;1.00;;;;;;4986357;28;20246;-74
2023/12/08 03:26:48;;;;;;;12.07;6.47;;;4.30;1.00;;;;;;4981243;28;20256;-73
2023/12/08 03:29:15;;;;;;;9.73;5.23;;;4.30;1.00;;;;;;4989275;28;20589;-74
2023/12/08 03:31:41;;;;;;;10.63;5.60;;;4.30;1.00;;;;;;4989716;28;20187;-73
2023/12/08 03:34:06;;;;;;;9.20;5.57;;;4.30;1.00;;;;;;4985449;28;20480;-73
2023/12/08 03:36:32;;;;;;;13.27;6.50;;;4.30;1.00;;;;;;4986860;28;20191;-74
2023/12/08 03:38:57;;;;;;;9.90;6.07;;;4.30;1.00;;;;;;4990330;28;20759;-74
2023/12/08 03:41:23;;;;;;;11.27;6.00;;;4.40;1.00;;;;;;4981289;28;20559;-74
2023/12/08 03:43:48;;;;;;;11.83;6.00;;;4.30;1.00;;;;;;4988531;28;20237;-73
2023/12/08 03:46:14;;;;;;;7.97;4.90;;;4.40;1.00;;;;;;4988522;28;20237;-74
2023/12/08 03:48:39;;;;;;;10.40;5.63;;;4.40;1.00;;;;;;4989447;28;20290;-74
2023/12/08 03:51:05;;;;;;;9.97;4.90;;;4.40;1.00;;;;;;4989407;28;20191;-74
2023/12/08 03:53:31;;;;;;;12.43;5.80;;;4.50;1.00;;;;;;4986640;28;20253;-74
2023/12/08 03:55:57;;;;;;;10.70;6.00;;;4.50;1.00;;;;;;4984653;28;20266;-74
2023/12/08 03:58:22;;;;;;;11.87;6.10;;;4.50;1.00;;;;;;4990537;28;20531;-72
2023/12/08 04:00:48;;;;;;;10.73;5.77;;;4.50;1.00;;;;;;4985011;28;20233;-72
2023/12/08 04:03:13;;;;;;;10.97;5.87;;;4.50;1.00;;;;;;4989845;28;20179;-74
2023/12/08 04:05:39;;;;;;;9.23;5.60;;;4.50;1.00;;;;;;4991297;28;20554;-74
2023/12/08 04:08:04;;;;;;;10.20;5.33;;;4.40;1.00;;;;;;4984754;28;20573;-74
2023/12/08 04:10:33;;;;;;;9.30;6.27;;;4.40;1.00;;;;;;4981720;28;20223;-74
2023/12/08 04:12:58;;;;;;;10.57;6.57;;;4.40;1.00;;;;;;4984449;28;20183;-74
2023/12/08 04:15:24;;;;;;;10.93;6.37;;;4.40;1.00;;;;;;4989347;28;20462;-74
2023/12/08 04:17:49;;;;;;;9.60;5.33;;;4.40;1.00;;;;;;4984259;28;20713;-72
2023/12/08 04:20:17;;;;;;;13.90;6.70;;;4.30;1.00;;;;;;4990820;28;20202;-74
2023/12/08 04:22:43;;;;;;;12.53;6.40;;;4.30;1.00;;;;;;4987711;28;20226;-73
2023/12/08 04:25:08;;;;;;;11.20;5.67;;;4.30;1.00;;;;;;4990192;28;20469;-72
2023/12/08 04:27:34;;;;;;;10.60;5.40;;;4.30;1.00;;;;;;4989718;28;20202;-74
2023/12/08 04:29:59;;;;;;;9.50;5.57;;;4.40;1.00;;;;;;4989000;28;20215;-74
2023/12/08 04:32:25;;;;;;;12.63;6.47;;;4.40;1.00;;;;;;4988658;28;20209;-74
2023/12/08 04:34:50;;;;;;;9.80;5.47;;;4.40;1.00;;;;;;4988717;28;20191;-72
2023/12/08 04:37:16;;;;;;;12.40;5.70;;;4.40;1.00;;;;;;4985405;28;20258;-73
2023/12/08 04:39:41;;;;;;;10.70;5.97;;;4.40;1.00;;;;;;4990734;28;20246;-74
2023/12/08 04:42:07;;;;;;;12.30;6.07;;;4.40;1.00;;;;;;4982925;28;20229;-74
2023/12/08 04:44:33;;;;;;;10.57;5.97;;;4.30;1.00;;;;;;4985216;28;20202;-74
2023/12/08 04:46:59;;;;;;;9.93;6.00;;;4.30;1.00;;;;;;4990157;28;20198;-74
2023/12/08 04:49:25;;;;;;;12.60;6.80;;;;;;;;;;4986954;28;20234;-74
2023/12/08 04:51:51;;;;;;;13.17;6.10;;;4.30;1.00;;;;;;4988556;28;20469;-73
2023/12/08 04:54:16;;;;;;;11.20;5.80;;;4.30;1.00;;;;;;4980711;28;20210;-73
2023/12/08 04:56:42;;;;;;;12.93;6.00;;;4.30;1.00;;;;;;4988294;28;20190;-74
2023/12/08 04:59:08;;;;;;;12.23;6.23;;;4.20;1.00;;;;;;4989645;28;20218;-74
2023/12/08 05:01:35;;;;;;;10.43;5.73;;;4.30;1.00;;;;;;4984166;28;20205;-73
2023/12/08 05:04:01;;;;;;;12.87;6.80;;;4.30;1.00;;;;;;4982743;28;20728;-75
2023/12/08 05:06:26;;;;;;;14.60;6.43;;;4.30;1.00;;;;;;4985888;28;20423;-74
2023/12/08 05:08:53;;;;;;;14.47;7.10;;;4.30;1.00;;;;;;4985185;28;20249;-74
2023/12/08 05:11:18;;;;;;;13.00;7.07;;;4.30;1.00;;;;;;4989093;28;20172;-74
2023/12/08 05:13:43;;;;;;;12.17;6.77;;;4.30;1.00;;;;;;4989842;28;20427;-74
2023/12/08 05:16:12;;;;;;;14.57;7.10;;;4.30;1.00;;;;;;4988855;28;20191;-75
2023/12/08 05:18:39;;;;;;;11.43;7.00;;;4.30;1.00;;;;;;4988461;28;20218;-74
2023/12/08 05:21:04;;;;;;;10.63;6.10;;;4.20;1.00;;;;;;4988609;28;20509;-73
2023/12/08 05:23:30;;;;;;;12.17;6.97;;;4.20;1.00;;;;;;4987280;28;20434;-73
2023/12/08 05:25:55;;;;;;;15.07;7.07;;;4.10;1.00;;;;;;4984818;28;20186;-72
2023/12/08 05:28:21;;;;;;;13.30;6.50;;;4.00;1.00;;;;;;4989147;28;20207;-73
2023/12/08 05:30:46;;;;;;;11.63;6.37;;;4.00;1.00;;;;;;4986342;28;20187;-74
2023/12/08 05:33:12;;;;;;;13.83;7.13;;;4.00;1.00;;;;;;4987972;28;20195;-74
2023/12/08 05:35:37;;;;;;;13.20;6.83;;;4.00;1.00;;;;;;4984167;28;20223;-75
2023/12/08 05:38:03;;;;;;;12.80;6.40;;;3.60;1.00;;;;;;4986854;28;20215;-74
2023/12/08 05:40:28;;;;;;;15.97;7.90;;;4.10;1.00;;;;;;4983678;28;20655;-73
2023/12/08 05:42:54;;;;;;;13.10;7.57;;;4.00;1.00;;;;;;4977468;28;20188;-74
2023/12/08 05:45:19;;;;;;;15.17;7.40;;;4.00;1.00;;;;;;4985403;28;20191;-73
2023/12/08 05:47:45;;;;;;;13.00;6.90;;;4.00;1.00;;;;;;4986951;28;20211;-74
2023/12/08 05:50:11;;;;;;;17.87;7.37;;;3.90;1.00;;;;;;4985109;28;20723;-74
2023/12/08 05:52:36;;;;;;;14.50;6.90;;;3.90;1.00;;;;;;4986567;28;20198;-74
2023/12/08 05:55:02;;;;;;;12.27;6.30;;;3.80;1.00;;;;;;4988819;28;20190;-73
2023/12/08 05:57:28;;;;;;;13.00;6.67;;;3.80;1.00;;;;;;4988479;28;20214;-73
2023/12/08 05:59:54;;;;;;;14.13;7.27;;;3.80;1.00;;;;;;4989325;28;20426;-73
2023/12/08 06:02:19;;;;;;;15.03;7.10;;;3.80;1.00;;;;;;4984358;28;20253;-74
2023/12/08 06:04:45;;;;;;;14.87;7.20;;;3.70;1.00;;;;;;4989731;28;20264;-74
2023/12/08 06:07:10;;;;;;;15.87;7.13;;;3.70;1.00;;;;;;4984631;28;20182;-74
2023/12/08 06:09:36;;;;;;;14.50;6.97;;;3.70;1.00;;;;;;4989702;28;20716;-74
2023/12/08 06:12:02;;;;;;;15.70;7.27;;;3.70;1.00;;;;;;4982062;28;20183;-74
2023/12/08 06:14:27;;;;;;;13.20;7.77;;;3.60;1.00;;;;;;4974744;28;20191;-73
2023/12/08 06:16:53;;;;;;;16.77;7.43;;;3.60;1.00;;;;;;4985072;28;20202;-71
2023/12/08 06:19:19;;;;;;;17.50;7.50;;;3.60;1.00;;;;;;4993448;28;20281;-73
2023/12/08 06:21:44;;;;;;;14.77;7.60;;;3.50;1.00;;;;;;4992566;28;20290;-73
2023/12/08 06:24:10;;;;;;;13.90;7.13;;;3.70;1.00;;;;;;4993198;28;20265;-73
2023/12/08 06:26:38;;;;;;;13.60;7.10;;;3.50;1.00;;;;;;4988522;28;20245;-73
2023/12/08 06:29:03;;;;;;;14.30;7.20;;;3.50;1.00;;;;;;4984748;28;20586;-72
2023/12/08 06:31:29;;;;;;;14.73;7.27;;;3.60;1.00;;;;;;4983813;28;20438;-74
2023/12/08 06:33:55;;;;;;;22.10;7.43;;;3.50;1.00;;;;;;4992931;28;20187;-73
2023/12/08 06:36:20;;;;;;;15.10;6.83;;;3.60;1.00;;;;;;4992605;28;20439;-74
2023/12/08 06:38:46;;;;;;;20.37;8.37;;;3.60;1.00;;;;;;4984539;28;20570;-74
2023/12/08 06:41:11;;;;;;;14.60;7.30;;;3.80;1.00;;;;;;4990516;28;20871;-73
2023/12/08 06:43:37;;;;;;;14.77;7.30;;;3.60;1.00;;;;;;4993154;28;20203;-74
2023/12/08 06:46:03;;;;;;;15.60;7.57;;;3.70;1.00;;;;;;4991807;28;20277;-73
2023/12/08 06:48:28;;;;;;;16.60;7.97;;;3.70;1.00;;;;;;4982157;28;20245;-74
2023/12/08 06:50:54;;;;;;;11.87;7.40;;;3.70;1.00;;;;;;4990640;28;20461;-73
2023/12/08 06:53:19;;;;;;;15.23;7.47;;;3.70;1.00;;;;;;4989091;28;20705;-74
2023/12/08 06:55:45;;;;;;;12.77;7.10;;;3.80;1.00;;;;;;4987087;28;20646;-74
2023/12/08 06:58:10;;;;;;;12.37;6.30;;;3.70;1.00;;;;;;4984770;28;20318;-74
2023/12/08 07:00:36;;;;;;;13.60;7.40;;;3.70;1.00;;;;;;4991231;28;20226;-72
2023/12/08 07:03:02;;;;;;;14.27;7.40;;;3.70;1.00;;;;;;4990996;28;20672;-72
2023/12/08 07:05:27;;;;;;;16.33;7.20;;;3.70;1.00;;;;;;4992226;28;20191;-74
2023/12/08 07:07:55;;;;;;;14.07;7.27;;;3.80;1.00;;;;;;4992775;28;20203;-74
2023/12/08 07:10:20;;;;;;;17.67;7.77;;;3.80;1.00;;;;;;4991535;28;20210;-73
2023/12/08 07:12:46;;;;;;;13.90;7.50;;;3.80;1.00;;;;;;4986520;28;20426;-74
2023/12/08 07:15:11;;;;;;;17.80;7.80;;;3.70;1.00;;;;;;4991579;28;20187;-75
2023/12/08 07:17:37;;;;;;;16.60;7.50;;;3.70;1.00;;;;;;4992243;28;20183;-75
2023/12/08 07:20:06;;;;;;;11.30;6.70;;;3.70;1.00;;;;;;4990212;28;20282;-74
2023/12/08 07:22:32;;;;;;;14.07;8.00;;;3.60;1.00;;;;;;4989881;28;20457;-74
2023/12/08 07:24:58;;;;;;;14.77;7.80;;;3.80;1.00;;;;;;4992265;28;20426;-74
2023/12/08 07:27:23;;;;;;;12.40;6.60;;;3.60;1.00;;;;;;4991568;28;20434;-73
2023/12/08 07:29:49;;;;;;;14.80;7.50;;;3.60;1.00;;;;;;4989596;28;21097;-75
2023/12/08 07:32:14;;;;;;;16.40;7.40;;;3.60;1.00;;;;;;4988731;28;20237;-73
2023/12/08 07:34:40;;;;;;;18.40;8.43;;;3.70;1.00;;;;;;4990420;28;20213;-74
2023/12/08 07:37:05;;;;;;;22.37;8.40;;;3.70;1.00;;;;;;4991784;28;20236;-75
2023/12/08 07:39:31;;;;;;;16.00;7.80;;;3.70;1.00;;;;;;4990572;28;20310;-74
2023/12/08 07:41:56;;;;;;;16.87;7.43;;;3.60;1.00;;;;;;4991231;28;20302;-74
2023/12/08 07:44:22;;;;;;;17.63;8.10;;;3.60;1.00;;;;;;4990172;28;20570;-74
2023/12/08 07:46:47;;;;;;;15.20;7.93;;;3.60;1.00;;;;;;4991539;28;20186;-74
2023/12/08 07:49:13;;;;;;;18.07;7.23;;;3.70;1.00;;;;;;4990944;28;20207;-74
2023/12/08 07:51:38;;;;;;;14.70;6.83;;;3.60;1.00;;;;;;4990156;28;20186;-73
2023/12/08 07:54:04;;;;;;;14.53;8.10;;;3.60;1.00;;;;;;4990871;28;20183;-74
2023/12/08 07:56:29;;;;;;;13.67;7.17;;;3.70;1.00;;;;;;4990490;28;20239;-74
2023/12/08 07:58:55;;;;;;;14.17;7.33;;;3.70;1.00;;;;;;4990485;28;20214;-74
2023/12/08 08:01:21;;;;;;;16.03;8.77;;;3.60;1.00;;;;;;4988957;28;20278;-74
2023/12/08 08:03:46;;;;;;;17.40;8.47;;;3.70;1.00;;;;;;4987946;28;20231;-74
2023/12/08 08:06:12;;;;;;;16.63;8.10;;;3.70;1.00;;;;;;4990797;28;20190;-71
2023/12/08 08:08:37;;;;;;;18.13;8.00;;;3.80;1.00;;;;;;4983855;28;20229;-74
2023/12/08 08:11:04;;;;;;;16.80;7.60;;;3.80;1.00;;;;;;4991293;28;20187;-74
2023/12/08 08:13:29;;;;;;;17.00;7.80;;;3.80;1.00;;;;;;4988384;28;20653;-74
2023/12/08 08:15:55;;;;;;;14.97;7.47;;;3.90;1.00;;;;;;4989444;28;20438;-74
2023/12/08 08:18:20;;;;;;;18.37;7.73;;;3.90;1.00;;;;;;4990510;28;20200;-73
2023/12/08 08:20:46;;;;;;;16.50;7.80;;;3.90;1.00;;;;;;4989667;28;20964;-74
2023/12/08 08:23:11;;;;;;;14.63;7.17;;;3.90;1.00;;;;;;4990285;28;20422;-74
2023/12/08 08:25:37;;;;;;;16.00;7.87;;;4.70;1.00;;;;;;4985372;28;20217;-74
2023/12/08 08:28:02;;;;;;;15.57;7.30;;;4.90;1.00;;;;;;4988504;28;20214;-73
2023/12/08 08:30:28;;;;;;;12.40;7.07;;;4.80;1.00;;;;;;4990276;28;20210;-74
2023/12/08 08:32:53;;;;;;;15.57;7.90;;;4.50;1.00;;;;;;4989678;28;20191;-74
2023/12/08 08:35:20;;;;;;;13.30;6.93;;;4.30;1.00;;;;;;4988894;28;20191;-74
2023/12/08 08:37:45;;;;;;;13.30;7.43;;;4.20;1.00;;;;;;4989730;28;20199;-74
2023/12/08 08:40:11;;;;;;;12.67;7.60;;;4.20;1.00;;;;;;4986259;28;20916;-73
2023/12/08 08:42:37;;;;;;;15.77;7.70;;;4.20;1.00;;;;;;4981378;28;20197;-73
2023/12/08 08:45:04;;;;;;;12.33;6.90;;;4.20;1.00;;;;;;4989923;28;20262;-73
2023/12/08 08:47:30;;;;;;;15.90;7.63;;;4.20;1.00;;;;;;4989013;28;20714;-74
2023/12/08 08:49:55;;;;;;;14.50;7.70;;;4.20;1.00;;;;;;4989848;28;20500;-74
2023/12/08 08:52:21;;;;;;;14.70;7.17;;;4.20;1.00;;;;;;4989322;28;20427;-73
2023/12/08 08:54:47;;;;;;;12.47;7.60;;;4.20;1.00;;;;;;4989862;28;20645;-74
2023/12/08 08:57:12;;;;;;;13.90;7.90;;;4.30;1.00;;;;;;4990065;28;20298;-74
2023/12/08 08:59:38;;;;;;;16.03;7.30;;;4.30;1.00;;;;;;4989507;28;20242;-74
2023/12/08 09:02:03;;;;;;;13.97;7.40;;;3.50;1.00;;;;;;4988864;28;20562;-74
2023/12/08 09:04:29;;;;;;;16.60;8.77;;;4.30;1.00;;;;;;4989363;28;20210;-74
2023/12/08 09:06:56;;;;;;;20.00;7.70;;;4.40;1.00;;;;;;4989778;28;20191;-74
2023/12/08 09:09:22;;;;;;;15.90;8.10;;;4.40;1.00;;;;;;4989674;28;20214;-73
2023/12/08 09:11:47;;;;;;;11.93;6.40;;;4.50;1.00;;;;;;4987837;28;20437;-73
2023/12/08 09:14:13;;;;;;;15.10;7.30;;;4.40;1.00;;;;;;4987097;28;20793;-74
2023/12/08 09:16:39;;;;;;;19.57;7.57;;;4.40;1.00;;;;;;4989490;28;20190;-74
2023/12/08 09:19:05;;;;;;;15.60;7.60;;;4.40;1.00;;;;;;4984524;28;20530;-74
2023/12/08 09:21:31;;;;;;;14.80;7.53;;;4.40;1.00;;;;;;4986645;28;20789;-73
2023/12/08 09:23:56;;;;;;;16.40;7.67;;;4.40;1.00;;;;;;4989040;28;20505;-73
2023/12/08 09:26:22;;;;;;;15.03;7.80;;;4.40;1.00;;;;;;4983234;28;20184;-73
2023/12/08 09:28:47;;;;;;;17.03;7.60;;;4.50;1.00;;;;;;4983224;28;20712;-73
2023/12/08 09:31:13;;;;;;;13.97;6.70;;;4.60;1.00;;;;;;4987556;28;20183;-73
2023/12/08 09:33:41;;;;;;;13.40;6.87;;;4.60;1.00;;;;;;4988572;28;20172;-73
2023/12/08 09:36:10;;;;;;;15.20;6.90;;;4.60;1.00;;;;;;4987934;28;20314;-73
2023/12/08 09:38:35;;;;;;;12.03;6.40;;;4.60;1.00;;;;;;4989075;28;21054;-73
2023/12/08 09:41:04;;;;;;;11.20;6.47;;;4.70;1.00;;;;;;4984120;28;21063;-73
2023/12/08 09:43:42;;;;;;;12.30;6.90;;;4.90;1.00;;;;;;4986689;28;20622;-73
2023/12/08 09:46:08;;;;;;;14.10;7.23;;;4.80;1.00;;;;;;4989824;28;20453;-73
2023/12/08 09:48:36;;;;;;;19.03;7.00;;;4.90;1.00;;;;;;4983796;28;20467;-73
2023/12/08 09:51:03;;;;;;;14.17;7.20;;;4.90;1.00;;;;;;4986880;28;20418;-73
2023/12/08 09:53:31;;;;;;;12.97;7.10;;;4.90;1.00;;;;;;4988323;28;20414;-73
2023/12/08 09:55:57;;;;;;;17.70;8.67;;;4.90;1.00;;;;;;4991169;28;20512;-73
2023/12/08 09:58:26;;;;;;;13.80;7.20;;;4.80;1.00;;;;;;4994246;28;20446;-73
2023/12/08 10:00:51;;;;;;;16.00;7.77;;;4.80;1.00;;;;;;4992980;28;20431;-73
2023/12/08 10:03:17;;;;;;;12.60;6.90;;;4.80;1.00;;;;;;4991051;28;20500;-73
2023/12/08 10:05:43;;;;;;;17.23;8.63;;;4.90;1.00;;;;;;4996168;28;20183;-73
2023/12/08 10:08:09;;;;;;;14.20;7.93;;;5.00;1.00;;;;;;4994696;28;20241;-73
2023/12/08 10:10:35;;;;;;;15.10;7.70;;;5.00;1.00;;;;;;4995504;28;20194;-73
2023/12/08 10:13:02;;;;;;;14.67;8.80;;;5.00;1.00;;;;;;4994551;28;20442;-73
2023/12/08 10:15:27;;;;;;;14.77;7.60;;;5.00;1.00;;;;;;4995725;28;20203;-73
2023/12/08 10:17:53;;;;;;;13.93;7.80;;;5.10;1.00;;;;;;4991504;28;20457;-73
2023/12/08 10:20:20;;;;;;;15.57;7.77;;;5.10;1.00;;;;;;4995507;28;20179;-73
2023/12/08 10:22:47;;;;;;;14.10;8.03;;;5.20;1.00;;;;;;4995975;28;20190;-73
2023/12/08 10:25:17;;;;;;;12.87;7.03;;;5.20;1.00;;;;;;4994868;28;20462;-73
2023/12/08 10:27:51;;;;;;;13.30;6.97;;;5.20;1.00;;;;;;4994945;28;20461;-73
2023/12/08 10:30:18;;;;;;;13.70;6.93;;;5.20;1.00;;;;;;4994337;28;21055;-73
2023/12/08 10:32:44;;;;;;;12.90;7.57;;;5.20;1.00;;;;;;4994300;28;20414;-73
2023/12/08 10:35:13;;;;;;;16.20;7.40;;;5.20;1.00;;;;;;4994644;28;20998;-73
2023/12/08 10:37:40;;;;;;;12.33;6.70;;;5.20;1.00;;;;;;4994582;28;20449;-73
2023/12/08 10:40:08;;;;;;;15.30;7.70;;;5.20;1.00;;;;;;4995759;28;20492;-73
2023/12/08 10:42:34;;;;;;;14.10;7.77;;;5.20;1.00;;;;;;4995839;28;21024;-73
2023/12/08 10:45:00;;;;;;;15.57;8.53;;;5.30;1.00;;;;;;4995943;28;20521;-73
2023/12/08 10:47:27;;;;;;;15.80;8.03;;;5.30;1.00;;;;;;4993656;28;20222;-73
2023/12/08 10:49:54;;;;;;;11.10;6.67;;;5.30;1.00;;;;;;4995326;28;20560;-73
2023/12/08 10:52:21;;;;;;;14.10;7.00;;;5.30;1.00;;;;;;4995456;28;20442;-73
2023/12/08 10:54:48;;;;;;;11.73;7.20;;;5.30;1.00;;;;;;4993290;28;20437;-73
2023/12/08 10:57:15;;;;;;;13.00;7.27;;;5.30;1.00;;;;;;4994881;28;20518;-73
2023/12/08 10:59:43;;;;;;;14.30;7.77;;;5.30;1.00;;;;;;4994095;28;20514;-73
2023/12/08 11:02:20;;;;;;;14.00;7.37;;;5.40;1.00;;;;;;4993943;28;20496;-73
2023/12/08 11:04:53;;;;;;;13.33;7.27;;;5.50;1.00;;;;;;4993816;28;20421;-74
2023/12/08 11:07:27;;;;;;;15.43;7.77;;;5.60;1.00;;;;;;4978220;28;20442;-74
2023/12/08 11:09:55;;;;;;;14.10;7.73;;;5.80;1.00;;;;;;4987239;28;20481;-73
2023/12/08 11:12:26;;;;;;;19.07;8.07;;;5.70;1.00;;;;;;4992166;28;20569;-73
2023/12/08 11:15:01;;;;;;;14.97;7.90;;;5.80;1.00;;;;;;4992610;28;20431;-74
2023/12/08 11:17:35;;;;;;;15.47;7.80;;;5.90;1.00;;;;;;4990008;28;20434;-73
2023/12/08 11:20:01;;;;;;;13.10;7.07;;;5.90;1.00;;;;;;4990766;28;20432;-73
2023/12/08 11:22:27;;;;;;;14.40;7.60;;;6.00;1.00;;;;;;4992141;28;20434;-74
2023/12/08 11:24:56;;;;;;;14.63;7.93;;;6.00;1.00;;;;;;4992260;28;20518;-74
2023/12/08 11:27:38;;;;;;;12.97;7.20;;;6.10;1.00;;;;;;4997539;28;20488;-73
2023/12/08 11:30:29;;;;;;;12.20;7.20;;;6.10;1.00;;;;;;4990517;28;20560;-74
2023/12/08 11:32:57;;;;;;;14.40;7.30;;;6.10;1.00;;;;;;4985283;28;20438;-74
2023/12/08 11:35:23;;;;;;;15.10;7.60;;;6.10;1.00;;;;;;4991353;28;20415;-72
2023/12/08 11:37:49;;;;;;;11.87;6.77;;;6.20;1.00;;;;;;4989164;28;20448;-74
2023/12/08 11:40:15;;;;;;;16.10;6.90;;;6.20;1.00;;;;;;4989868;28;20187;-74
2023/12/08 11:42:44;;;;;;;15.10;6.87;;;6.20;1.00;;;;;;4990534;28;20428;-75
2023/12/08 11:45:10;;;;;;;19.40;7.37;;;6.10;1.00;;;;;;4990992;28;20183;-74
2023/12/08 11:47:37;;;;;;;16.80;7.60;;;6.10;1.00;;;;;;4990200;28;20441;-73
2023/12/08 11:50:05;;;;;;;15.67;7.17;;;6.10;1.00;;;;;;4990605;28;20458;-72
2023/12/08 11:52:36;;;;;;;15.93;8.10;;;6.10;1.00;;;;;;4990330;28;20976;-74
2023/12/08 11:55:12;;;;;;;14.27;7.70;;;6.10;1.00;;;;;;4990885;28;20427;-74
2023/12/08 11:57:46;;;;;;;13.97;7.70;;;6.20;1.00;;;;;;4991208;28;20509;-75
2023/12/08 12:00:17;;;;;;;13.70;8.13;;;6.10;1.00;;;;;;4990580;28;20456;-74
2023/12/08 12:02:43;;;;;;;13.93;6.93;;;6.20;1.00;;;;;;4990734;28;20450;-73
2023/12/08 12:05:10;;;;;;;13.23;7.23;;;6.20;1.00;;;;;;4989657;28;20844;-74
2023/12/08 12:07:37;;;;;;;16.90;8.60;;;6.20;1.00;;;;;;4989232;28;20797;-74
2023/12/08 12:10:04;;;;;;;20.90;7.97;;;6.20;1.00;;;;;;4991383;28;20462;-73
2023/12/08 12:12:31;;;;;;;13.00;7.50;;;6.20;1.00;;;;;;4991136;28;20426;-73
2023/12/08 12:15:01;;;;;;;11.00;6.80;;;6.20;1.00;;;;;;4991496;28;20437;-74
2023/12/08 12:17:27;;;;;;;16.93;7.83;;;6.30;1.00;;;;;;4990155;28;20422;-73
2023/12/08 12:19:52;;;;;;;15.70;7.87;;;6.30;1.00;;;;;;4987039;28;20933;-75
2023/12/08 12:22:19;;;;;;;13.27;7.70;;;6.30;1.00;;;;;;4987017;28;20190;-74
2023/12/08 12:24:45;;;;;;;13.63;7.90;;;6.10;1.00;;;;;;4989777;28;20187;-75
2023/12/08 12:27:11;;;;;;;16.10;9.03;;;6.00;1.00;;;;;;4990627;28;20481;-74
2023/12/08 12:29:36;;;;;;;20.13;10.60;;;6.00;1.00;;;;;;4989672;28;20833;-75
2023/12/08 12:32:08;;;;;;;19.30;11.53;;;5.90;1.00;;;;;;4990894;28;20222;-74
2023/12/08 12:34:35;;;;;;;18.50;8.60;;;6.00;1.00;;;;;;4989117;28;20191;-74
2023/12/08 12:37:00;;;;;;;23.13;8.97;;;6.00;1.00;;;;;;4984074;28;20426;-73
2023/12/08 12:39:26;;;;;;;12.30;7.17;;;6.00;1.00;;;;;;4989317;28;20469;-72
2023/12/08 12:41:58;;;;;;;18.90;9.23;;;6.00;1.00;;;;;;4988501;28;20604;-74
2023/12/08 12:44:36;;;;;;;20.20;9.67;;;6.00;1.00;;;;;;4988611;28;20277;-73
2023/12/08 12:47:02;;;;;;;16.00;8.53;;;6.00;1.00;;;;;;4989751;28;20437;-74
2023/12/08 12:49:28;;;;;;;14.83;8.23;;;6.00;1.00;;;;;;4984983;28;20462;-74
2023/12/08 12:51:53;;;;;;;21.30;9.37;;;6.00;1.00;;;;;;4986144;28;20183;-75
2023/12/08 12:54:37;;;;;;;18.47;8.33;;;6.00;1.00;;;;;;4990719;28;20558;-75